Time;durP1;ratioP1;P1;durP2;ratioP2;P2;SDS_P1;SDS_P2;PMS_P1;PMS_P2;Temp;Humidity;BMP_temperature;BMP_pressure;BME280_temperature;BME280_humidity;BME280_pressure;Samples;Min_cycle;Max_cycle;Signal;HPM_P1;HPM_P2
2023/05/26 00:00:01;;;;;;;17.48;3.67;;;;;;;11.63;86.84;102883.69;5024541;28;20935;-80
2023/05/26 00:02:27;;;;;;;13.02;3.35;;;;;;;11.47;87.15;102887.06;5022460;28;20025;-80
2023/05/26 00:04:53;;;;;;;14.73;4.30;;;;;;;11.51;86.64;102890.84;5010746;28;20032;-80
2023/05/26 00:07:18;;;;;;;15.75;4.75;;;;;;;11.53;86.82;102891.34;5027802;28;20025;-80
2023/05/26 00:09:43;;;;;;;12.07;4.05;;;;;;;11.63;85.50;102886.50;5005610;28;20483;-80
2023/05/26 00:12:09;;;;;;;9.52;3.55;;;;;;;11.34;88.03;102894.53;5026429;28;20110;-80
2023/05/26 00:14:35;;;;;;;16.17;3.92;;;;;;;11.43;87.36;102896.50;5005127;28;20050;-80
2023/05/26 00:17:03;;;;;;;17.05;5.32;;;;;;;11.31;87.97;102900.78;4998642;28;20037;-80
2023/05/26 00:19:28;;;;;;;11.02;4.10;;;;;;;11.39;87.50;102905.56;5001195;28;20443;-80
2023/05/26 00:21:53;;;;;;;22.52;4.68;;;;;;;11.21;88.25;102894.72;5015939;28;20027;-80
2023/05/26 00:24:19;;;;;;;14.57;4.82;;;;;;;11.20;88.37;102885.50;5016821;28;20057;-80
2023/05/26 00:26:44;;;;;;;18.42;4.57;;;;;;;11.17;88.79;102891.75;5020171;28;20100;-80
2023/05/26 00:29:09;;;;;;;9.00;3.50;;;;;;;11.13;88.68;102887.97;5019162;28;20045;-80
2023/05/26 00:31:35;;;;;;;11.75;4.03;;;;;;;11.09;88.48;102882.22;5020749;28;20131;-80
2023/05/26 00:34:00;;;;;;;16.17;3.88;;;;;;;11.19;87.79;102887.47;5017962;28;20036;-80
2023/05/26 00:36:26;;;;;;;16.65;3.35;;;;;;;11.20;87.63;102877.09;5001736;28;20525;-80
2023/05/26 00:38:51;;;;;;;14.07;3.30;;;;;;;11.32;86.65;102891.25;5015395;28;20050;-80
2023/05/26 00:41:17;;;;;;;16.02;4.03;;;;;;;11.24;86.73;102889.28;5003367;28;20037;-80
2023/05/26 00:43:43;;;;;;;12.85;3.30;;;;;;;11.24;86.55;102888.47;5018776;28;20076;-80
2023/05/26 00:46:08;;;;;;;14.32;3.80;;;;;;;11.26;86.48;102895.38;5003479;28;20060;-80
2023/05/26 00:48:33;;;;;;;21.60;3.47;;;;;;;11.22;86.63;102897.19;5023846;28;20083;-80
2023/05/26 00:50:59;;;;;;;13.10;3.88;;;;;;;11.12;86.30;102875.94;5019626;28;20091;-80
2023/05/26 00:53:24;;;;;;;13.77;3.65;;;;;;;11.18;86.61;102891.44;5020814;28;20141;-80
2023/05/26 00:55:53;;;;;;;16.42;3.25;;;;;;;11.24;86.01;102888.47;5001590;28;20041;-80
2023/05/26 00:58:18;;;;;;;14.38;2.85;;;;;;;11.06;87.32;102879.25;5018892;28;20448;-80
2023/05/26 01:00:44;;;;;;;16.05;3.92;;;;;;;11.01;87.49;102874.66;5014573;28;20316;-80
2023/05/26 01:03:13;;;;;;;18.52;4.50;;;;;;;10.98;87.06;102880.91;5001362;28;20450;-80
2023/05/26 01:05:38;;;;;;;19.15;4.40;;;;;;;10.94;87.82;102885.53;5022665;28;20367;-80
2023/05/26 01:08:04;;;;;;;14.32;3.53;;;;;;;10.93;87.74;102883.88;5023278;28;20064;-80
2023/05/26 01:10:31;;;;;;;13.18;3.58;;;;;;;10.81;88.40;102880.94;5021009;28;20112;-80
2023/05/26 01:13:05;;;;;;;16.40;3.67;;;;;;;10.99;87.45;102899.38;5016632;28;20021;-80
2023/05/26 01:15:40;;;;;;;15.75;3.00;;;;;;;10.88;87.73;102890.50;4997365;28;20042;-80
2023/05/26 01:18:13;;;;;;;11.52;5.00;;;;;;;10.98;86.64;102897.72;5001898;28;20030;-80
2023/05/26 01:20:40;;;;;;;12.05;4.10;;;;;;;10.82;87.88;102888.19;4992422;28;20038;-80
2023/05/26 01:23:23;;;;;;;11.68;4.13;;;;;;;10.87;87.47;102893.63;4999040;28;20034;-80
2023/05/26 01:26:18;;;;;;;14.63;4.15;;;;;;;10.70;88.62;102898.06;5002074;28;20060;-80
2023/05/26 01:28:44;;;;;;;13.65;3.38;;;;;;;10.65;88.59;102903.84;4993596;28;20460;-80
2023/05/26 01:31:09;;;;;;;20.77;4.18;;;;;;;10.69;87.89;102895.59;4997119;28;20136;-80
2023/05/26 01:33:35;;;;;;;15.48;3.95;;;;;;;10.73;88.55;102903.03;4996706;28;20406;-80
2023/05/26 01:36:01;;;;;;;21.35;4.40;;;;;;;10.40;89.88;102896.25;5011037;28;20061;-80
2023/05/26 01:38:27;;;;;;;22.33;3.90;;;;;;;10.69;88.42;102907.63;5000010;28;20460;-80
2023/05/26 01:41:02;;;;;;;9.18;3.60;;;;;;;10.67;88.76;102904.34;4999315;28;20037;-80
2023/05/26 01:43:38;;;;;;;19.77;4.95;;;;;;;10.68;89.00;102902.34;5003338;28;20034;-80
2023/05/26 01:46:47;;;;;;;15.32;4.22;;;;;;;10.75;88.40;102909.13;4999819;28;20487;-80
2023/05/26 01:49:15;;;;;;;14.70;3.88;;;;;;;10.76;88.85;102907.94;4976172;28;20076;-80
2023/05/26 01:51:49;;;;;;;17.40;3.92;;;;;;;10.49;90.91;102909.09;4994707;28;20045;-80
2023/05/26 01:54:18;;;;;;;14.57;4.30;;;;;;;10.60;89.93;102904.00;4999668;28;20108;-80
2023/05/26 01:56:45;;;;;;;16.10;3.88;;;;;;;10.64;89.28;102904.97;4991987;28;20428;-80
2023/05/26 01:59:13;;;;;;;13.82;3.70;;;;;;;10.76;88.98;102909.94;5002499;28;20559;-80
2023/05/26 02:01:40;;;;;;;12.82;3.60;;;;;;;10.58;89.92;102906.28;4997771;28;20041;-80
2023/05/26 02:04:05;;;;;;;16.25;4.47;;;;;;;10.59;89.06;102913.56;5001969;28;20124;-80
2023/05/26 02:06:30;;;;;;;14.45;5.00;;;;;;;10.45;90.36;102896.06;4999522;28;20109;-80
2023/05/26 02:08:56;;;;;;;18.83;3.60;;;;;;;10.64;88.59;102915.38;4996453;28;20026;-80
2023/05/26 02:11:21;;;;;;;11.40;3.38;;;;;;;10.66;88.36;102919.47;4990403;28;20042;-80
2023/05/26 02:13:47;;;;;;;12.63;4.05;;;;;;;10.60;89.57;102914.38;5003096;28;20049;-80
2023/05/26 02:16:16;;;;;;;24.67;4.15;;;;;;;10.70;88.53;102928.88;5012056;28;20391;-80
2023/05/26 02:18:42;;;;;;;10.55;3.50;;;;;;;10.59;88.89;102924.75;4994413;28;20380;-80
2023/05/26 02:21:09;;;;;;;20.38;4.22;;;;;;;10.51;89.24;102928.38;5019226;28;20033;-79
2023/05/26 02:23:34;;;;;;;23.55;4.20;;;;;;;10.52;89.19;102930.84;5022059;28;20030;-80
2023/05/26 02:26:00;;;;;;;13.70;3.75;;;;;;;10.47;89.75;102935.78;5019418;28;20068;-80
2023/05/26 02:28:25;;;;;;;17.35;4.30;;;;;;;10.55;88.63;102932.16;5019379;28;20087;-80
2023/05/26 02:30:50;;;;;;;15.23;3.92;;;;;;;10.45;89.01;102916.50;5011774;28;20037;-80
2023/05/26 02:33:16;;;;;;;20.92;5.40;;;;;;;10.43;88.57;102923.56;5010511;28;20030;-80
2023/05/26 02:35:44;;;;;;;16.30;3.83;;;;;;;10.35;89.38;102931.66;4998627;28;20033;-80
2023/05/26 02:38:09;;;;;;;11.45;3.95;;;;;;;10.35;90.28;102933.59;4997640;28;20095;-80
2023/05/26 02:40:35;;;;;;;9.88;3.78;;;;;;;10.25;90.07;102937.50;5016322;28;20061;-80
2023/05/26 02:43:00;;;;;;;15.38;4.15;;;;;;;10.19;90.64;102930.41;5001335;28;20124;-80
2023/05/26 02:45:25;;;;;;;18.67;3.90;;;;;;;10.20;90.32;102922.84;4993894;28;20034;-80
2023/05/26 02:47:53;;;;;;;11.18;3.00;;;;;;;10.22;90.18;102929.75;5016696;28;20739;-80
2023/05/26 02:50:19;;;;;;;7.60;2.85;;;;;;;10.42;88.80;102933.13;5012272;28;20033;-80
2023/05/26 02:52:44;;;;;;;9.43;2.95;;;;;;;10.25;89.47;102926.31;5018118;28;20075;-80
2023/05/26 02:55:11;;;;;;;19.63;3.80;;;;;;;10.30;88.86;102914.16;5022519;28;20463;-80
2023/05/26 02:57:37;;;;;;;15.43;3.17;;;;;;;10.28;89.52;102930.44;4997183;28;20559;-80
2023/05/26 03:00:07;;;;;;;16.27;4.30;;;;;;;10.29;89.93;102921.75;5019862;28;20152;-80
2023/05/26 03:02:33;;;;;;;22.48;4.80;;;;;;;10.20;90.36;102918.06;5000174;28;20029;-80
2023/05/26 03:04:58;;;;;;;12.57;3.47;;;;;;;10.17;90.09;102929.91;5020122;28;20645;-80
2023/05/26 03:07:24;;;;;;;13.40;3.97;;;;;;;10.21;90.09;102930.91;5025129;28;20116;-80
2023/05/26 03:09:49;;;;;;;20.70;4.38;;;;;;;10.00;91.68;102929.88;5019724;28;20025;-80
2023/05/26 03:12:15;;;;;;;17.02;3.67;;;;;;;10.10;91.67;102938.78;5014678;28;20036;-80
2023/05/26 03:14:42;;;;;;;19.40;4.38;;;;;;;10.18;90.19;102926.81;4998549;28;20053;-80
2023/05/26 03:17:07;;;;;;;11.05;3.25;;;;;;;10.07;90.30;102931.03;4999589;28;20034;-79
2023/05/26 03:19:33;;;;;;;15.70;3.75;;;;;;;10.19;90.26;102930.41;5001153;28;20037;-80
2023/05/26 03:21:58;;;;;;;13.50;3.35;;;;;;;10.07;90.38;102941.41;5004427;28;20475;-80
2023/05/26 03:24:24;;;;;;;12.25;3.67;;;;;;;10.24;89.74;102941.44;5002606;28;20064;-80
2023/05/26 03:26:50;;;;;;;9.80;3.78;;;;;;;10.14;89.94;102928.59;4999176;28;20235;-80
2023/05/26 03:29:15;;;;;;;18.52;4.97;;;;;;;10.12;90.07;102939.28;4998411;28;20038;-79
2023/05/26 03:31:40;;;;;;;9.32;3.35;;;;;;;10.08;91.38;102945.88;4998904;28;20029;-80
2023/05/26 03:34:06;;;;;;;18.20;3.90;;;;;;;10.11;89.44;102934.00;5015272;28;20094;-80
2023/05/26 03:36:31;;;;;;;12.10;4.00;;;;;;;10.10;90.71;102937.97;4996496;28;20119;-80
2023/05/26 03:38:56;;;;;;;18.13;4.85;;;;;;;9.91;92.16;102944.66;5000328;28;20034;-80
2023/05/26 03:41:22;;;;;;;18.23;4.45;;;;;;;10.04;90.84;102944.88;5002360;28;20065;-80
2023/05/26 03:43:48;;;;;;;15.75;4.43;;;;;;;10.08;90.49;102948.66;5017749;28;20057;-80
2023/05/26 03:46:13;;;;;;;11.52;4.18;;;;;;;10.07;90.69;102949.81;4999690;28;20542;-80
2023/05/26 03:48:38;;;;;;;29.98;4.63;;;;;;;9.95;91.27;102940.06;4995617;28;20030;-79
2023/05/26 03:51:04;;;;;;;14.27;4.50;;;;;;;10.00;91.00;102941.06;4993048;28;20397;-80
2023/05/26 03:53:29;;;;;;;14.80;5.60;;;;;;;9.96;90.91;102941.69;4997169;28;20034;-79
2023/05/26 03:55:56;;;;;;;16.45;4.53;;;;;;;10.09;89.93;102945.53;4988537;28;20451;-79
2023/05/26 03:58:22;;;;;;;13.77;5.13;;;;;;;9.76;92.39;102934.72;4998135;28;21664;-80
2023/05/26 04:00:47;;;;;;;14.02;5.45;;;;;;;9.87;92.45;102940.84;4998445;28;20401;-79
2023/05/26 04:03:13;;;;;;;17.42;4.32;;;;;;;9.98;91.56;102950.59;5001076;28;20034;-79
2023/05/26 04:05:38;;;;;;;21.50;4.70;;;;;;;9.91;92.17;102947.44;4998765;28;20507;-80
2023/05/26 04:08:04;;;;;;;16.85;5.22;;;;;;;10.07;89.89;102947.81;5000332;28;20483;-79
2023/05/26 04:10:32;;;;;;;18.70;5.63;;;;;;;10.07;90.53;102952.59;4999782;28;20040;-79
2023/05/26 04:12:57;;;;;;;18.42;5.57;;;;;;;9.74;92.37;102941.78;5010799;28;20022;-79
2023/05/26 04:15:23;;;;;;;21.60;5.80;;;;;;;9.89;91.80;102941.34;5012670;28;20049;-80
2023/05/26 04:17:48;;;;;;;17.90;5.00;;;;;;;10.04;90.35;102945.69;4989552;28;20034;-79
2023/05/26 04:20:14;;;;;;;17.02;4.63;;;;;;;10.02;90.47;102947.16;4996110;28;20599;-80
2023/05/26 04:22:40;;;;;;;16.48;4.82;;;;;;;10.00;91.67;102953.06;4999328;28;20030;-80
2023/05/26 04:25:07;;;;;;;17.73;3.88;;;;;;;10.02;91.77;102958.34;4998486;28;20459;-80
2023/05/26 04:27:35;;;;;;;14.38;5.10;;;;;;;10.15;90.47;102951.81;4997060;28;20490;-80
2023/05/26 04:30:02;;;;;;;21.77;6.15;;;;;;;10.10;90.94;102949.16;4992764;28;20033;-79
2023/05/26 04:32:28;;;;;;;19.90;5.07;;;;;;;10.12;90.86;102960.88;4997842;28;20030;-80
2023/05/26 04:34:54;;;;;;;16.90;4.13;;;;;;;9.89;93.40;102955.34;4998360;28;20525;-80
2023/05/26 04:37:19;;;;;;;13.98;4.35;;;;;;;10.02;90.52;102950.78;5001776;28;20766;-80
2023/05/26 04:39:44;;;;;;;8.38;3.97;;;;;;;10.05;90.96;102958.50;5013040;28;20033;-80
2023/05/26 04:42:10;;;;;;;10.25;4.18;;;;;;;10.00;94.03;102961.47;5012065;28;20030;-80
2023/05/26 04:44:37;;;;;;;14.25;3.95;;;;;;;10.20;90.57;102971.22;4998304;28;20041;-79
2023/05/26 04:47:03;;;;;;;15.85;3.42;;;;;;;10.27;89.70;102976.38;4991798;28;20108;-80
2023/05/26 04:49:29;;;;;;;15.07;3.85;;;;;;;10.14;92.23;102980.91;4993634;28;20037;-80
2023/05/26 04:51:57;;;;;;;14.07;4.50;;;;;;;10.12;92.61;102978.47;5009324;28;20037;-80
2023/05/26 04:54:23;;;;;;;14.50;3.13;;;;;;;10.27;90.37;102990.38;5012551;28;20416;-80
2023/05/26 04:56:48;;;;;;;18.42;4.90;;;;;;;10.30;89.83;102993.38;4990647;28;20666;-79
2023/05/26 04:59:17;;;;;;;14.73;4.50;;;;;;;10.38;90.83;102992.56;5007182;28;20130;-80
2023/05/26 05:01:44;;;;;;;13.18;3.80;;;;;;;10.35;90.50;102998.84;4996066;28;20084;-80
2023/05/26 05:04:09;;;;;;;31.88;5.18;;;;;;;10.36;90.09;102997.66;4995493;28;20029;-80
2023/05/26 05:06:37;;;;;;;20.23;4.38;;;;;;;10.32;91.29;102996.66;4997974;28;20033;-80
2023/05/26 05:09:02;;;;;;;15.02;3.40;;;;;;;10.34;91.55;102990.75;5012686;28;20034;-81
2023/05/26 05:11:28;;;;;;;12.80;2.85;;;;;;;10.31;91.49;102992.22;5005879;28;20030;-81
2023/05/26 05:13:53;;;;;;;18.15;4.53;;;;;;;10.28;91.90;102992.84;4998752;28;20546;-81
2023/05/26 05:16:18;;;;;;;16.45;4.00;;;;;;;10.27;91.27;102996.78;5015259;28;20036;-81
2023/05/26 05:18:44;;;;;;;16.55;3.10;;;;;;;10.32;91.47;102996.66;5012982;28;20025;-81
2023/05/26 05:21:09;;;;;;;15.30;4.03;;;;;;;10.04;95.96;102992.44;5017006;28;20071;-82
2023/05/26 05:23:35;;;;;;;19.50;4.05;;;;;;;10.15;93.59;103000.19;5015718;28;20753;-82
2023/05/26 05:26:01;;;;;;;14.07;3.15;;;;;;;10.25;92.98;102999.09;5015637;28;20533;-81
2023/05/26 05:28:26;;;;;;;20.05;4.32;;;;;;;9.88;97.09;103001.22;5017407;28;20030;-80
2023/05/26 05:30:52;;;;;;;14.80;3.47;;;;;;;10.25;92.90;103010.28;5004789;28;20032;-81
2023/05/26 05:33:17;;;;;;;15.65;4.50;;;;;;;10.42;92.86;103003.13;4999561;28;20032;-80
2023/05/26 05:35:45;;;;;;;10.20;3.58;;;;;;;10.38;94.01;103008.56;5016828;28;20045;-80
2023/05/26 05:38:10;;;;;;;17.60;4.38;;;;;;;10.36;93.88;103017.25;5011159;28;20037;-81
2023/05/26 05:40:36;;;;;;;22.65;4.57;;;;;;;10.41;94.19;103007.06;5014952;28;20032;-81
2023/05/26 05:43:01;;;;;;;14.32;3.50;;;;;;;10.37;94.83;103010.53;4995805;28;20028;-80
2023/05/26 05:45:27;;;;;;;16.85;4.47;;;;;;;10.36;93.82;103013.66;5017873;28;21674;-80
2023/05/26 05:47:52;;;;;;;21.70;3.97;;;;;;;10.45;95.12;103008.06;5008607;28;20125;-80
2023/05/26 05:50:18;;;;;;;11.50;3.53;;;;;;;10.38;95.24;103009.38;4996484;28;20488;-81
2023/05/26 05:52:43;;;;;;;18.85;5.00;;;;;;;10.40;95.29;103017.44;5004866;28;20036;-80
2023/05/26 05:55:09;;;;;;;11.90;3.75;;;;;;;10.57;94.49;103016.66;4996671;28;20117;-80
2023/05/26 05:57:35;;;;;;;17.40;4.30;;;;;;;10.64;95.48;103022.59;5013674;28;20033;-80
2023/05/26 06:00:00;;;;;;;17.13;4.22;;;;;;;10.33;97.96;103026.31;5010886;28;20036;-80
2023/05/26 06:02:25;;;;;;;17.15;3.67;;;;;;;10.29;99.35;103030.06;5007998;28;20068;-81
2023/05/26 06:04:51;;;;;;;17.48;4.00;;;;;;;10.47;98.16;103042.16;4984597;28;20116;-78
2023/05/26 06:07:16;;;;;;;10.27;3.35;;;;;;;11.38;95.91;103041.31;5007221;28;20071;-83
2023/05/26 06:09:41;;;;;;;19.17;3.88;;;;;;;12.56;92.33;103041.97;5012398;28;20036;-83
2023/05/26 06:12:07;;;;;;;19.27;4.93;;;;;;;11.75;88.90;103046.53;5013907;28;20022;-82
2023/05/26 06:14:32;;;;;;;12.13;3.85;;;;;;;11.51;90.80;103052.66;5014404;28;20412;-83
2023/05/26 06:16:57;;;;;;;20.35;4.18;;;;;;;11.24;94.32;103053.84;5002310;28;20029;-83
2023/05/26 06:19:23;;;;;;;20.33;5.30;;;;;;;11.34;93.83;103057.16;5009463;28;20028;-83
2023/05/26 06:21:50;;;;;;;18.33;4.68;;;;;;;11.30;96.73;103044.94;5016451;28;20048;-81
2023/05/26 06:24:16;;;;;;;21.33;4.25;;;;;;;11.28;94.86;103030.44;5013612;28;20051;-81
2023/05/26 06:26:41;;;;;;;13.80;3.55;;;;;;;11.06;95.95;103042.63;5015586;28;20025;-82
2023/05/26 06:29:06;;;;;;;13.77;5.10;;;;;;;11.05;94.64;103045.75;4995772;28;20055;-81
2023/05/26 06:31:32;;;;;;;13.07;4.57;;;;;;;11.02;94.45;103044.41;5006544;28;20031;-81
2023/05/26 06:33:57;;;;;;;12.50;4.10;;;;;;;11.03;96.33;103051.69;5013314;28;20757;-81
2023/05/26 06:36:23;;;;;;;21.80;4.72;;;;;;;10.86;96.01;103046.06;4994748;28;20036;-81
2023/05/26 06:38:48;;;;;;;13.25;4.07;;;;;;;10.92;96.23;103044.72;5026284;28;20522;-81
2023/05/26 06:41:13;;;;;;;13.88;4.50;;;;;;;10.89;95.92;103040.63;4997530;28;20033;-82
2023/05/26 06:43:39;;;;;;;23.10;4.25;;;;;;;10.93;95.84;103049.19;5006262;28;20044;-83
2023/05/26 06:46:04;;;;;;;18.65;4.00;;;;;;;11.00;95.76;103041.13;5021963;28;23985;-82
2023/05/26 06:48:30;;;;;;;28.75;4.53;;;;;;;11.12;96.03;103044.09;5018619;28;20030;-83
2023/05/26 06:50:55;;;;;;;18.67;2.75;;;;;;;13.36;94.33;103049.53;5015565;28;20735;-75
2023/05/26 06:53:21;;;;;;;23.08;5.22;;;;;;;13.27;83.04;103051.56;5003995;28;20037;-78
2023/05/26 06:55:46;;;;;;;15.50;4.07;;;;;;;12.39;84.41;103049.31;5004527;28;20048;-78
2023/05/26 06:58:11;;;;;;;19.05;4.07;;;;;;;12.04;87.35;103042.19;5021632;28;20091;-78
2023/05/26 07:00:37;;;;;;;18.58;5.05;;;;;;;11.92;88.41;103054.94;5007048;28;20029;-78
2023/05/26 07:03:03;;;;;;;20.63;4.35;;;;;;;11.89;88.02;103044.41;5017397;28;20029;-78
2023/05/26 07:05:28;;;;;;;22.45;3.78;;;;;;;11.97;88.21;103051.97;5017039;28;20030;-78
2023/05/26 07:07:54;;;;;;;13.75;4.43;;;;;;;11.91;87.72;103058.91;5023259;28;20040;-78
2023/05/26 07:10:19;;;;;;;14.18;4.68;;;;;;;11.90;88.50;103057.25;5025312;28;20180;-79
2023/05/26 07:12:45;;;;;;;16.85;4.03;;;;;;;12.11;86.95;103056.56;5023228;28;20050;-79
2023/05/26 07:15:10;;;;;;;19.95;4.20;;;;;;;12.11;87.46;103056.56;5021770;28;20057;-79
2023/05/26 07:17:36;;;;;;;16.73;5.35;;;;;;;12.12;90.21;103055.38;5020386;28;20391;-79
2023/05/26 07:20:02;;;;;;;18.98;5.47;;;;;;;12.08;88.64;103048.78;5033763;28;20045;-79
2023/05/26 07:22:27;;;;;;;17.02;5.25;;;;;;;12.15;88.33;103063.97;5025691;28;20079;-79
2023/05/26 07:24:53;;;;;;;14.85;5.13;;;;;;;11.98;89.41;103058.41;5024616;28;20029;-79
2023/05/26 07:27:18;;;;;;;15.45;3.83;;;;;;;11.99;88.63;103065.66;4991662;28;20147;-79
2023/05/26 07:29:43;;;;;;;18.20;4.03;;;;;;;12.07;88.46;103061.19;5007024;28;20064;-79
2023/05/26 07:32:09;;;;;;;15.63;4.07;;;;;;;12.17;87.95;103066.44;5000637;28;20080;-78
2023/05/26 07:34:35;;;;;;;10.98;3.53;;;;;;;12.26;86.74;103058.78;5016662;28;20519;-79
2023/05/26 07:37:00;;;;;;;19.85;4.57;;;;;;;12.28;86.50;103052.84;5019676;28;20502;-78
2023/05/26 07:39:25;;;;;;;27.88;3.75;;;;;;;12.26;86.21;103064.41;5026294;28;20037;-79
2023/05/26 07:41:50;;;;;;;19.00;4.65;;;;;;;12.27;85.90;103068.88;5005497;28;20060;-79
2023/05/26 07:44:16;;;;;;;21.92;4.20;;;;;;;12.38;85.88;103064.53;5006569;28;20123;-79
2023/05/26 07:46:41;;;;;;;19.73;3.97;;;;;;;12.37;85.57;103060.06;5020233;28;20438;-78
2023/05/26 07:49:07;;;;;;;18.10;5.28;;;;;;;12.51;84.76;103054.22;5023007;28;20041;-79
2023/05/26 07:51:32;;;;;;;18.10;4.95;;;;;;;12.55;84.59;103060.00;5007526;28;20034;-79
2023/05/26 07:53:57;;;;;;;17.40;4.25;;;;;;;12.65;83.30;103056.81;5024428;28;20646;-78
2023/05/26 07:56:23;;;;;;;11.60;4.38;;;;;;;12.50;84.44;103057.38;5022946;28;20030;-79
2023/05/26 07:58:48;;;;;;;16.80;4.18;;;;;;;12.55;84.89;103054.38;5019126;28;20029;-80
2023/05/26 08:01:13;;;;;;;11.35;4.22;;;;;;;12.62;84.07;103043.41;5015770;28;20045;-78
2023/05/26 08:03:39;;;;;;;15.95;4.28;;;;;;;12.68;84.00;103041.25;5027184;28;20037;-82
2023/05/26 08:06:05;;;;;;;17.40;4.78;;;;;;;12.77;85.85;103044.81;5025306;28;20437;-81
2023/05/26 08:08:30;;;;;;;12.45;4.43;;;;;;;12.89;83.76;103047.72;5016850;28;20095;-80
2023/05/26 08:10:55;;;;;;;21.63;4.57;;;;;;;12.86;84.09;103044.75;5006574;28;20045;-80
2023/05/26 08:13:21;;;;;;;19.08;3.70;;;;;;;12.77;83.76;103040.00;5015641;28;20044;-80
2023/05/26 08:15:46;;;;;;;11.35;4.00;;;;;;;12.92;82.90;103040.59;5022695;28;20503;-80
2023/05/26 08:18:12;;;;;;;22.25;4.95;;;;;;;13.02;82.05;103034.56;4998926;28;20491;-79
2023/05/26 08:20:37;;;;;;;14.63;4.47;;;;;;;13.19;82.25;103042.84;5015845;28;20115;-79
2023/05/26 08:23:03;;;;;;;14.95;3.90;;;;;;;13.25;80.43;103042.66;5016117;28;20148;-78
2023/05/26 08:25:28;;;;;;;9.60;4.07;;;;;;;13.16;81.28;103037.94;5001675;28;20045;-79
2023/05/26 08:27:54;;;;;;;15.68;4.43;;;;;;;13.31;80.25;103041.31;5001076;28;20052;-79
2023/05/26 08:30:19;;;;;;;12.48;3.42;;;;;;;13.21;80.99;103042.50;5002719;28;20072;-80
2023/05/26 08:32:45;;;;;;;11.65;3.88;;;;;;;13.33;81.02;103039.00;5024518;28;20108;-80
2023/05/26 08:35:10;;;;;;;11.48;3.95;;;;;;;13.29;79.85;103033.22;5020975;28;20108;-80
2023/05/26 08:37:35;;;;;;;20.85;4.85;;;;;;;13.55;79.34;103035.78;4992410;28;20139;-78
2023/05/26 08:40:04;;;;;;;18.95;4.97;;;;;;;13.38;78.75;103044.38;5022289;28;20748;-78
2023/05/26 08:42:34;;;;;;;11.25;3.90;;;;;;;13.58;77.90;103029.47;5001693;28;20037;-79
2023/05/26 08:45:00;;;;;;;15.85;4.18;;;;;;;13.83;77.23;103046.44;5016625;28;20029;-78
2023/05/26 08:47:26;;;;;;;16.15;4.45;;;;;;;13.97;77.09;103034.84;5017382;28;20040;-78
2023/05/26 08:49:56;;;;;;;11.43;3.22;;;;;;;13.76;77.19;103041.38;5018618;28;20574;-78
2023/05/26 08:52:22;;;;;;;11.85;3.53;;;;;;;13.69;76.20;103034.69;5018592;28;20053;-77
2023/05/26 08:54:48;;;;;;;18.73;5.25;;;;;;;13.81;75.01;103037.53;4997231;28;20033;-79
2023/05/26 08:57:15;;;;;;;14.27;4.40;;;;;;;13.79;74.92;103037.06;4996745;28;20375;-78
2023/05/26 08:59:43;;;;;;;8.02;3.33;;;;;;;13.89;75.17;103039.41;5017081;28;20030;-79
2023/05/26 09:02:09;;;;;;;20.52;3.83;;;;;;;13.91;74.42;103045.50;5015815;28;20471;-79
2023/05/26 09:04:35;;;;;;;14.10;3.45;;;;;;;13.99;74.68;103038.97;5022307;28;20142;-79
2023/05/26 09:07:00;;;;;;;14.27;3.92;;;;;;;14.12;76.14;103039.78;5017871;28;20495;-79
2023/05/26 09:09:26;;;;;;;19.15;4.85;;;;;;;14.19;76.03;103042.88;5019616;28;20479;-78
2023/05/26 09:11:51;;;;;;;14.38;3.92;;;;;;;14.27;73.85;103045.91;5013915;28;20676;-79
2023/05/26 09:14:19;;;;;;;25.60;4.95;;;;;;;14.34;72.49;103035.72;5019715;28;20080;-79
2023/05/26 09:19:37;;;;;;;14.63;4.68;;;;;;;14.63;73.02;103039.50;5018231;28;20041;-78
2023/05/26 09:22:10;;;;;;;15.95;4.78;;;;;;;14.69;73.63;103038.06;4997220;28;20155;-79
2023/05/26 09:24:47;;;;;;;11.10;4.50;;;;;;;14.63;73.57;103047.94;5019858;28;20021;-77
2023/05/26 09:27:17;;;;;;;15.52;4.53;;;;;;;15.14;72.83;103039.88;5018672;28;20057;-77
2023/05/26 09:29:50;;;;;;;14.93;4.22;;;;;;;15.31;72.05;103035.13;5000889;28;20661;-77
2023/05/26 09:32:16;;;;;;;16.17;3.47;;;;;;;14.96;72.95;103035.69;5016267;28;20349;-78
2023/05/26 09:34:41;;;;;;;20.50;4.00;;;;;;;14.80;73.77;103039.25;5017874;28;20029;-78
2023/05/26 09:37:09;;;;;;;14.27;3.63;;;;;;;14.91;72.18;103044.41;4998901;28;20029;-78
2023/05/26 09:39:35;;;;;;;14.38;4.43;;;;;;;15.06;71.48;103035.22;5020078;28;20025;-78
2023/05/26 09:42:06;;;;;;;16.40;3.70;;;;;;;15.12;68.51;103045.06;5012520;28;20037;-79
2023/05/26 09:44:31;;;;;;;11.43;4.03;;;;;;;15.29;70.49;103031.84;5018212;28;20171;-78
2023/05/26 09:46:57;;;;;;;13.45;3.33;;;;;;;14.99;69.03;103037.81;5013683;28;20119;-79
2023/05/26 09:49:22;;;;;;;13.27;4.10;;;;;;;15.37;68.43;103039.34;4994804;28;20033;-79
2023/05/26 09:51:50;;;;;;;26.23;6.13;;;;;;;15.95;66.38;103042.59;5017992;28;20032;-79
2023/05/26 09:54:17;;;;;;;13.40;3.60;;;;;;;15.69;66.87;103036.63;5022270;28;20700;-78
2023/05/26 09:56:52;;;;;;;12.52;4.50;;;;;;;15.89;64.78;103038.41;5024380;28;20087;-79
2023/05/26 09:59:21;;;;;;;12.60;3.35;;;;;;;15.70;66.59;103041.06;5004199;28;20029;-79
2023/05/26 10:01:48;;;;;;;8.07;2.83;;;;;;;15.69;64.73;103039.44;5018958;28;20029;-78
2023/05/26 10:04:15;;;;;;;10.63;3.50;;;;;;;15.55;63.92;103026.56;5014503;28;20037;-78
2023/05/26 10:06:41;;;;;;;8.25;3.45;;;;;;;15.68;63.25;103035.78;5000638;28;20064;-78
2023/05/26 10:09:08;;;;;;;11.80;3.33;;;;;;;16.29;71.30;103034.59;5019460;28;20042;-79
2023/05/26 10:11:43;;;;;;;6.93;2.67;;;;;;;16.68;61.77;103043.22;5021760;28;20036;-79
2023/05/26 10:14:09;;;;;;;5.72;2.55;;;;;;;17.02;61.92;103041.59;5002752;28;20534;-80
2023/05/26 10:16:36;;;;;;;11.07;3.00;;;;;;;17.37;66.69;103046.41;5015924;28;20490;-79
2023/05/26 10:19:02;;;;;;;8.32;3.00;;;;;;;17.10;64.09;103034.09;5023231;28;20033;-80
2023/05/26 10:21:33;;;;;;;13.10;3.95;;;;;;;17.68;60.33;103042.56;5022306;28;20430;-79
2023/05/26 10:24:25;;;;;;;11.02;3.78;;;;;;;17.88;58.29;103026.41;5021077;28;20087;-80
2023/05/26 10:27:08;;;;;;;12.32;3.58;;;;;;;17.57;62.81;103027.38;5017620;28;20484;-79
2023/05/26 10:30:05;;;;;;;9.35;2.53;;;;;;;17.85;57.48;103043.31;5018650;28;20379;-79
2023/05/26 10:32:52;;;;;;;12.65;2.85;;;;;;;16.59;57.56;103034.09;5013013;28;20071;-79
2023/05/26 10:35:26;;;;;;;9.43;2.55;;;;;;;16.83;59.13;103033.09;5016776;28;20499;-78
2023/05/26 10:38:11;;;;;;;14.40;3.58;;;;;;;17.13;58.00;103033.34;5018709;28;20476;-79
2023/05/26 10:40:45;;;;;;;10.98;2.60;;;;;;;17.07;60.52;103034.84;5020255;28;20495;-79
2023/05/26 10:43:11;;;;;;;14.30;3.50;;;;;;;16.90;56.92;103038.09;5018427;28;20489;-79
2023/05/26 10:45:46;;;;;;;10.57;3.90;;;;;;;16.91;60.04;103036.88;5020213;28;20526;-79
2023/05/26 10:48:11;;;;;;;6.28;3.60;;;;;;;17.23;56.69;103032.75;5013333;28;20068;-81
2023/05/26 10:50:55;;;;;;;7.95;3.58;;;;;;;17.57;58.95;103035.88;5019385;28;20033;-82
2023/05/26 10:53:25;;;;;;;11.35;3.28;;;;;;;17.08;54.28;103036.47;5015677;28;20034;-81
2023/05/26 10:55:56;;;;;;;8.68;3.20;;;;;;;17.62;55.43;103031.91;5004703;28;20034;-81
2023/05/26 10:58:28;;;;;;;18.98;3.33;;;;;;;17.94;57.48;103032.56;5007171;28;20446;-81
2023/05/26 11:00:55;;;;;;;12.25;3.03;;;;;;;18.22;53.96;103026.56;5003131;28;20037;-82
2023/05/26 11:03:33;;;;;;;8.65;2.55;;;;;;;17.81;54.01;103028.22;5018256;28;20775;-81
2023/05/26 11:05:59;;;;;;;9.07;2.75;;;;;;;17.95;52.71;103022.88;5003778;28;20036;-81
2023/05/26 11:08:25;;;;;;;9.23;2.85;;;;;;;17.75;55.50;103024.91;5020138;28;20332;-81
2023/05/26 11:11:02;;;;;;;8.73;2.88;;;;;;;17.61;58.75;103025.44;5014988;28;20071;-81
2023/05/26 11:13:43;;;;;;;5.45;2.50;;;;;;;17.75;57.69;103029.72;4987987;28;20022;-81
2023/05/26 11:16:24;;;;;;;8.57;2.65;;;;;;;17.71;56.21;103021.19;5010579;28;20033;-82
2023/05/26 11:18:55;;;;;;;10.30;4.68;;;;;;;18.18;51.76;103013.56;5015069;28;20033;-82
2023/05/26 11:21:25;;;;;;;10.20;2.33;;;;;;;18.40;52.50;103015.53;5012260;28;20448;-82